createdAt,value
2023-01-21T00:00:57.320Z,987.22
2023-01-21T00:04:00.664Z,1000.20
2023-01-21T00:07:04.156Z,1048.45
2023-01-21T00:10:09.881Z,1038.85
2023-01-21T00:13:13.201Z,1009.08
2023-01-21T00:16:16.629Z,1003.03
2023-01-21T00:19:20.059Z,1030.03
2023-01-21T00:22:23.460Z,1003.80
2023-01-21T00:25:28.558Z,994.45
2023-01-21T00:28:33.601Z,1057.90
2023-01-21T00:31:37.122Z,1020.05
2023-01-21T00:34:40.533Z,1034.57
2023-01-21T00:37:43.924Z,1042.03
2023-01-21T00:40:48.814Z,1029.60
2023-01-21T00:43:52.207Z,1029.18
2023-01-21T00:46:55.562Z,1009.88
2023-01-21T00:49:58.919Z,1097.68
2023-01-21T00:53:02.352Z,1011.38
2023-01-21T00:56:09.343Z,1051.97
2023-01-21T00:59:12.994Z,1052.57
2023-01-21T01:02:16.270Z,1025.88
2023-01-21T01:05:19.986Z,1008.20
2023-01-21T01:08:23.373Z,995.10
2023-01-21T01:11:28.985Z,1045.70
2023-01-21T01:14:32.282Z,1024.68
2023-01-21T01:17:35.742Z,1058.60
2023-01-21T01:20:38.946Z,979.05
2023-01-21T01:23:43.490Z,1024.22
2023-01-21T01:26:48.167Z,1066.50
2023-01-21T01:29:51.394Z,993.80
2023-01-21T01:32:54.532Z,1007.75
2023-01-21T01:36:02.652Z,1013.13
2023-01-21T01:39:07.481Z,1041.20
2023-01-21T01:42:15.437Z,1017.70
2023-01-21T01:45:21.216Z,1031.10
2023-01-21T01:48:28.737Z,1015.63
2023-01-21T01:51:40.441Z,1042.43
2023-01-21T01:54:47.040Z,1057.60
2023-01-21T01:57:53.996Z,1009.72
2023-01-21T02:00:57.649Z,1014.78
2023-01-21T02:04:04.345Z,1008.53
2023-01-21T02:07:08.595Z,1036.97
2023-01-21T02:10:14.079Z,991.13
2023-01-21T02:13:19.307Z,1051.22
2023-01-21T02:16:57.861Z,1018.72
2023-01-21T02:20:40.708Z,985.63
2023-01-21T02:24:08.823Z,1033.53
2023-01-21T02:27:30.852Z,1037.13
2023-01-21T02:31:03.090Z,1023.22
2023-01-21T02:34:17.715Z,1048.68
2023-01-21T02:37:27.592Z,1063.03
2023-01-21T02:40:37.117Z,1012.78
2023-01-21T02:43:48.222Z,791.78
2023-01-21T02:46:56.595Z,1053.72
2023-01-21T02:50:05.708Z,1026.22
2023-01-21T02:53:19.960Z,991.15
2023-01-21T02:56:28.249Z,1016.53
2023-01-21T02:59:31.708Z,1050.28
2023-01-21T03:02:52.360Z,1023.55
2023-01-21T03:06:20.731Z,1017.65
2023-01-21T03:09:26.081Z,1011.63
2023-01-21T03:12:37.690Z,995.63
2023-01-21T03:16:06.587Z,1038.63
2023-01-21T03:19:14.482Z,1062.10
2023-01-21T03:22:22.903Z,1008.22
2023-01-21T03:25:27.303Z,1019.80
2023-01-21T03:28:33.856Z,997.33
2023-01-21T03:31:39.857Z,1031.75
2023-01-21T03:34:48.212Z,1024.47
2023-01-21T03:37:57.662Z,1034.25
2023-01-21T03:41:05.370Z,763.50
2023-01-21T03:44:09.159Z,1040.88
2023-01-21T03:47:20.100Z,996.67
2023-01-21T03:50:27.692Z,1037.45
2023-01-21T03:53:32.255Z,1006.70
2023-01-21T03:56:35.408Z,1015.70
2023-01-21T03:59:38.577Z,1062.32
2023-01-21T04:02:41.803Z,1017.53
2023-01-21T04:05:45.006Z,1005.25
2023-01-21T04:08:50.164Z,1004.72
2023-01-21T04:11:53.380Z,1057.05
2023-01-21T04:14:57.144Z,1033.00
2023-01-21T04:18:00.458Z,981.08
2023-01-21T04:21:03.654Z,992.17
2023-01-21T04:24:08.726Z,1007.88
2023-01-21T04:27:11.916Z,1004.75
2023-01-21T04:30:15.718Z,997.50
2023-01-21T04:33:19.605Z,1015.60
2023-01-21T04:36:22.805Z,999.85
2023-01-21T04:39:27.375Z,1017.10
2023-01-21T04:42:30.504Z,1015.13
2023-01-21T04:45:33.755Z,994.20
2023-01-21T04:48:37.039Z,1040.40
2023-01-21T04:51:40.230Z,1049.32
2023-01-21T04:54:44.785Z,1005.28
2023-01-21T04:57:47.938Z,1002.90
2023-01-21T05:00:51.183Z,955.38
2023-01-21T05:03:54.425Z,1009.13
2023-01-21T05:06:57.646Z,987.47
2023-01-21T05:10:02.393Z,970.83
2023-01-21T05:13:05.818Z,1015.78
2023-01-21T05:16:10.074Z,985.97
2023-01-21T05:19:13.509Z,962.47
2023-01-21T05:22:16.669Z,970.40
2023-01-21T05:25:21.227Z,970.97
2023-01-21T05:28:24.448Z,933.42
2023-01-21T05:31:27.723Z,991.65
2023-01-21T05:34:31.137Z,1024.65
2023-01-21T05:37:34.283Z,980.65
2023-01-21T05:40:40.063Z,950.92
2023-01-21T05:43:43.267Z,954.72
2023-01-21T05:46:46.504Z,961.60
2023-01-21T05:49:49.668Z,947.53
2023-01-21T05:52:52.786Z,932.70
2023-01-21T05:55:58.271Z,937.15
2023-01-21T05:59:01.499Z,945.53
2023-01-21T06:02:04.773Z,901.13
2023-01-21T06:05:08.985Z,896.05
2023-01-21T06:08:13.155Z,961.00
2023-01-21T06:11:17.797Z,909.97
2023-01-21T06:14:20.990Z,882.50
2023-01-21T06:17:24.279Z,957.85
2023-01-21T06:20:29.469Z,944.90
2023-01-21T06:23:32.670Z,988.72
2023-01-21T06:26:37.297Z,938.47
2023-01-21T06:29:40.640Z,980.80
2023-01-21T06:32:43.792Z,989.00
2023-01-21T06:35:47.429Z,1003.38
2023-01-21T06:38:50.663Z,953.38
2023-01-21T06:41:55.574Z,946.03
2023-01-21T06:44:58.826Z,969.33
2023-01-21T06:48:02.313Z,943.50
2023-01-21T06:51:05.912Z,989.47
2023-01-21T06:54:09.347Z,988.10
2023-01-21T06:57:13.965Z,1016.45
2023-01-21T07:00:18.548Z,1010.83
2023-01-21T07:03:22.310Z,986.28
2023-01-21T07:06:25.759Z,1023.15
2023-01-21T07:09:29.060Z,984.17
2023-01-21T07:12:34.329Z,1021.33
2023-01-21T07:15:37.783Z,1040.70
2023-01-21T07:18:41.198Z,1010.60
2023-01-21T07:21:44.720Z,1053.78
2023-01-21T07:24:48.177Z,1011.95
2023-01-21T07:27:52.801Z,1072.95
2023-01-21T07:30:56.370Z,1071.07
2023-01-21T07:33:59.957Z,1061.72
2023-01-21T07:37:03.382Z,1007.90
2023-01-21T07:40:08.116Z,993.95
2023-01-21T07:43:12.797Z,1045.28
2023-01-21T07:46:18.120Z,1016.25
2023-01-21T07:49:21.600Z,1041.18
2023-01-21T07:52:25.115Z,972.22
2023-01-21T07:55:29.641Z,1068.72
2023-01-21T07:58:34.638Z,1046.70
2023-01-21T08:01:38.354Z,1031.43
2023-01-21T08:04:41.847Z,1032.63
2023-01-21T08:07:45.131Z,1013.60
2023-01-21T08:10:53.749Z,1038.15
2023-01-21T08:13:58.533Z,1011.08
2023-01-21T08:17:02.192Z,1009.75
2023-01-21T08:20:05.938Z,1003.17
2023-01-21T08:23:09.148Z,1009.25
2023-01-21T08:26:12.369Z,1041.65
2023-01-21T08:29:17.020Z,1010.13
2023-01-21T08:32:20.272Z,993.05
2023-01-21T08:35:23.487Z,1019.50
2023-01-21T08:38:26.672Z,946.28
2023-01-21T08:41:29.915Z,925.25
2023-01-21T08:44:35.732Z,897.35
2023-01-21T08:47:38.889Z,937.00
2023-01-21T08:50:42.011Z,955.17
2023-01-21T08:53:45.238Z,939.22
2023-01-21T08:56:48.540Z,923.45
2023-01-21T08:59:53.119Z,956.60
2023-01-21T09:02:56.414Z,934.65
2023-01-21T09:06:01.692Z,949.30
2023-01-21T09:09:04.954Z,877.88
2023-01-21T09:12:08.637Z,853.95
2023-01-21T09:15:13.518Z,852.33
2023-01-21T09:18:16.732Z,870.10
2023-01-21T09:21:19.919Z,861.17
2023-01-21T09:24:23.695Z,898.22
2023-01-21T09:27:28.246Z,825.70
2023-01-21T09:30:33.102Z,876.83
2023-01-21T09:33:38.223Z,860.15
2023-01-21T09:36:41.909Z,825.42
2023-01-21T09:39:45.157Z,747.95
2023-01-21T09:42:48.400Z,789.60
2023-01-21T09:45:56.508Z,757.17
2023-01-21T09:49:00.637Z,825.17
2023-01-21T09:52:15.750Z,819.67
2023-01-21T09:55:21.496Z,791.60
2023-01-21T09:58:32.050Z,794.67
2023-01-21T10:01:39.788Z,747.97
2023-01-21T10:04:50.103Z,709.03
2023-01-21T10:11:09.830Z,662.80
2023-01-21T10:14:25.126Z,704.65
2023-01-21T10:17:38.096Z,641.25
2023-01-21T10:20:47.027Z,617.97
2023-01-21T10:23:53.483Z,576.35
2023-01-21T10:26:56.885Z,548.13
2023-01-21T10:30:05.959Z,512.63
2023-01-21T10:33:18.770Z,467.15
2023-01-21T10:37:00.886Z,437.70
2023-01-21T10:40:12.174Z,439.45
2023-01-21T10:43:28.994Z,426.27
2023-01-21T10:46:38.415Z,451.30
2023-01-21T10:49:50.725Z,428.77
2023-01-21T10:53:01.389Z,449.05
2023-01-21T10:56:15.046Z,456.05
2023-01-21T10:59:22.346Z,484.30
2023-01-21T11:02:30.161Z,464.50
2023-01-21T11:05:35.006Z,447.17
2023-01-21T11:08:39.289Z,434.75
2023-01-21T11:11:43.010Z,384.15
2023-01-21T11:14:49.153Z,358.67
2023-01-21T11:17:56.487Z,355.50
2023-01-21T11:21:04.156Z,359.40
2023-01-21T11:24:23.103Z,327.95
2023-01-21T11:27:34.927Z,316.85
2023-01-21T11:30:50.734Z,288.33
2023-01-21T11:33:55.915Z,241.32
2023-01-21T11:37:02.943Z,206.52
2023-01-21T11:40:09.232Z,235.23
2023-01-21T11:43:36.988Z,209.77
2023-01-21T11:46:41.467Z,202.77
2023-01-21T11:49:49.000Z,170.48
2023-01-21T11:53:12.685Z,186.73
2023-01-21T11:56:17.380Z,211.05
2023-01-21T11:59:25.828Z,211.18
2023-01-21T12:02:32.090Z,222.23
2023-01-21T12:05:40.369Z,263.02
2023-01-21T12:08:49.444Z,306.90
2023-01-21T12:12:26.231Z,309.30
2023-01-21T12:15:46.953Z,270.83
2023-01-21T12:19:18.854Z,299.33
2023-01-21T12:22:36.231Z,318.08
2023-01-21T12:25:48.658Z,278.73
2023-01-21T12:29:22.894Z,230.95
2023-01-21T12:32:29.017Z,216.70
2023-01-21T12:35:36.723Z,222.57
2023-01-21T12:38:44.128Z,233.38
2023-01-21T12:41:56.647Z,193.05
2023-01-21T12:45:04.813Z,130.90
2023-01-21T12:48:16.787Z,131.88
2023-01-21T12:51:26.971Z,104.00
2023-01-21T12:54:39.135Z,84.63
2023-01-21T12:57:51.529Z,90.30
2023-01-21T13:01:15.631Z,91.40
2023-01-21T13:04:29.987Z,129.32
2023-01-21T13:07:44.800Z,165.30
2023-01-21T13:10:51.817Z,178.85
2023-01-21T13:14:04.442Z,193.73
2023-01-21T13:17:14.289Z,162.27
2023-01-21T13:20:20.567Z,149.90
2023-01-21T13:23:32.273Z,160.27
2023-01-21T13:26:44.353Z,182.15
2023-01-21T13:29:58.450Z,177.73
2023-01-21T13:33:17.863Z,169.02
2023-01-21T13:36:34.570Z,149.70
2023-01-21T13:39:45.097Z,136.00
2023-01-21T13:42:56.449Z,124.88
2023-01-21T13:46:14.250Z,118.85
2023-01-21T13:49:42.804Z,115.97
2023-01-21T13:53:03.173Z,88.28
2023-01-21T13:59:22.695Z,85.13
2023-01-21T14:02:31.705Z,92.07
2023-01-21T14:05:39.084Z,106.57
2023-01-21T14:08:46.565Z,137.60
2023-01-21T14:11:55.016Z,174.65
2023-01-21T14:15:32.506Z,253.60
2023-01-21T14:18:58.987Z,247.05
2023-01-21T14:22:20.007Z,275.23
2023-01-21T14:25:35.540Z,204.68
2023-01-21T14:28:45.205Z,268.95
2023-01-21T14:31:55.180Z,350.98
2023-01-21T14:35:15.581Z,311.45
2023-01-21T14:41:26.202Z,455.27
2023-01-21T14:44:41.761Z,443.05
2023-01-21T14:47:48.933Z,426.38
2023-01-21T14:51:12.232Z,395.27
2023-01-21T14:54:18.928Z,387.85
2023-01-21T14:57:27.689Z,386.23
2023-01-21T15:00:33.575Z,379.88
2023-01-21T15:03:49.571Z,415.52
2023-01-21T15:06:57.862Z,426.20
2023-01-21T15:10:09.096Z,409.50
2023-01-21T15:13:29.415Z,458.98
2023-01-21T15:19:40.739Z,407.55
2023-01-21T15:22:46.977Z,459.80
2023-01-21T15:26:30.378Z,453.80
2023-01-21T15:29:35.973Z,459.30
2023-01-21T15:32:40.916Z,457.27
2023-01-21T15:35:45.451Z,472.25
2023-01-21T15:38:51.059Z,464.52
2023-01-21T15:42:06.339Z,478.30
2023-01-21T15:45:24.993Z,440.10
2023-01-21T15:48:51.618Z,508.92
2023-01-21T15:52:06.711Z,472.95
2023-01-21T15:55:26.456Z,432.77
2023-01-21T15:58:42.723Z,413.75
2023-01-21T16:01:55.529Z,419.83
2023-01-21T16:05:15.559Z,451.23
2023-01-21T16:08:36.895Z,403.98
2023-01-21T16:11:58.543Z,480.73
2023-01-21T16:15:12.923Z,456.33
2023-01-21T16:18:27.379Z,418.17
2023-01-21T16:21:34.244Z,443.98
2023-01-21T16:24:43.688Z,473.85
2023-01-21T16:28:39.413Z,339.67
2023-01-21T16:31:48.794Z,478.38
2023-01-21T16:34:52.189Z,494.80
2023-01-21T16:37:57.089Z,514.03
2023-01-21T16:41:24.208Z,518.08
2023-01-21T16:44:28.142Z,534.67
2023-01-21T16:47:36.675Z,536.40
2023-01-21T16:50:39.919Z,494.90
2023-01-21T16:53:43.299Z,502.45
2023-01-21T16:56:50.007Z,512.20
2023-01-21T16:59:55.951Z,497.42
2023-01-21T17:03:03.659Z,506.40
2023-01-21T17:06:15.167Z,480.25
2023-01-21T17:09:27.852Z,511.10
2023-01-21T17:12:36.103Z,487.15
2023-01-21T17:15:42.323Z,490.38
2023-01-21T17:18:52.339Z,505.92
2023-01-21T17:21:59.975Z,472.67
2023-01-21T17:25:08.171Z,464.85
2023-01-21T17:28:18.913Z,533.67
2023-01-21T17:31:28.952Z,479.35
2023-01-21T17:34:35.318Z,514.13
2023-01-21T17:37:43.903Z,521.58
2023-01-21T17:41:01.130Z,504.05
2023-01-21T17:44:07.805Z,509.45
2023-01-21T17:47:23.163Z,486.33
2023-01-21T17:50:30.490Z,483.58
2023-01-21T17:53:34.088Z,478.92
2023-01-21T17:56:42.451Z,476.50
2023-01-21T17:59:46.853Z,512.28
2023-01-21T18:02:50.462Z,463.02
2023-01-21T18:05:56.046Z,469.17
2023-01-21T18:08:59.505Z,508.52
2023-01-21T18:12:03.161Z,535.15
2023-01-21T18:15:08.086Z,481.48
2023-01-21T18:18:17.812Z,510.02
2023-01-21T18:21:22.840Z,472.42
2023-01-21T18:24:26.763Z,482.60
2023-01-21T18:27:30.501Z,437.83
2023-01-21T18:30:34.041Z,456.80
2023-01-21T18:33:37.584Z,465.40
2023-01-21T18:36:43.118Z,466.08
2023-01-21T18:39:47.133Z,479.63
2023-01-21T18:42:52.339Z,492.67
2023-01-21T18:45:55.990Z,408.60
2023-01-21T18:48:59.475Z,466.67
2023-01-21T18:52:04.514Z,461.77
2023-01-21T18:55:08.975Z,441.95
2023-01-21T18:58:14.843Z,469.13
2023-01-21T19:01:23.594Z,436.40
2023-01-21T19:04:27.686Z,485.92
2023-01-21T19:07:33.862Z,475.88
2023-01-21T19:10:37.246Z,461.50
2023-01-21T19:13:40.951Z,474.02
2023-01-21T19:16:45.534Z,472.45
2023-01-21T19:19:49.156Z,449.08
2023-01-21T19:22:55.401Z,504.40
2023-01-21T19:25:59.742Z,451.55
2023-01-21T19:29:04.005Z,472.70
2023-01-21T19:32:08.300Z,472.38
2023-01-21T19:35:15.283Z,459.88
2023-01-21T19:38:23.221Z,491.65
2023-01-21T19:41:27.148Z,457.85
2023-01-21T19:44:30.708Z,447.20
2023-01-21T19:47:34.556Z,436.05
2023-01-21T19:50:38.549Z,437.80
2023-01-21T19:53:43.700Z,424.38
2023-01-21T19:56:47.485Z,439.23
2023-01-21T19:59:53.643Z,461.75
2023-01-21T20:02:57.483Z,415.70
2023-01-21T20:06:03.551Z,458.98
2023-01-21T20:09:12.172Z,452.13
2023-01-21T20:12:15.770Z,505.25
2023-01-21T20:15:23.644Z,463.58
2023-01-21T20:18:29.106Z,504.58
2023-01-21T20:21:32.695Z,481.65
2023-01-21T20:24:38.799Z,498.85
2023-01-21T20:27:42.904Z,469.05
2023-01-21T20:30:48.444Z,483.45
2023-01-21T20:33:52.240Z,434.88
2023-01-21T20:36:56.824Z,419.15
2023-01-21T20:40:03.129Z,416.05
2023-01-21T20:43:07.322Z,422.92
2023-01-21T20:46:17.478Z,402.85
2023-01-21T20:49:23.646Z,385.63
2023-01-21T20:52:27.920Z,346.85
2023-01-21T20:55:33.982Z,376.30
2023-01-21T20:58:42.238Z,408.00
2023-01-21T21:01:47.366Z,419.80
2023-01-21T21:04:54.518Z,435.58
2023-01-21T21:07:58.740Z,395.95
2023-01-21T21:11:04.515Z,381.50
2023-01-21T21:14:08.846Z,467.45
2023-01-21T21:17:13.788Z,400.83
2023-01-21T21:20:23.707Z,441.13
2023-01-21T21:23:27.131Z,452.02
2023-01-21T21:26:33.551Z,390.58
2023-01-21T21:29:36.977Z,442.23
2023-01-21T21:32:40.535Z,376.67
2023-01-21T21:35:44.765Z,428.35
2023-01-21T21:38:49.058Z,433.90
2023-01-21T21:42:11.476Z,446.27
2023-01-21T21:45:15.178Z,407.05
2023-01-21T21:48:39.325Z,434.02
2023-01-21T21:51:45.367Z,385.52
2023-01-21T21:54:48.974Z,424.60
2023-01-21T21:57:54.676Z,383.23
2023-01-21T22:00:58.264Z,492.83
2023-01-21T22:04:03.349Z,406.92
2023-01-21T22:07:06.688Z,422.00
2023-01-21T22:10:13.099Z,400.95
2023-01-21T22:13:17.837Z,464.50
2023-01-21T22:16:24.484Z,437.92
2023-01-21T22:19:27.819Z,466.48
2023-01-21T22:22:31.160Z,377.48
2023-01-21T22:25:35.987Z,378.40
2023-01-21T22:28:40.980Z,383.48
2023-01-21T22:31:44.466Z,399.55
2023-01-21T22:34:47.862Z,388.42
2023-01-21T22:37:51.220Z,381.02
2023-01-21T22:40:55.376Z,376.13
2023-01-21T22:44:00.038Z,343.98
2023-01-21T22:47:03.380Z,362.52
2023-01-21T22:50:07.827Z,373.30
2023-01-21T22:53:11.667Z,339.58
2023-01-21T22:56:16.857Z,377.73
2023-01-21T22:59:21.963Z,341.27
2023-01-21T23:02:25.786Z,375.42
2023-01-21T23:05:29.725Z,341.58
2023-01-21T23:08:33.345Z,352.13
2023-01-21T23:11:36.882Z,379.38
2023-01-21T23:14:41.667Z,348.25
2023-01-21T23:17:45.204Z,371.75
2023-01-21T23:20:49.018Z,382.70
2023-01-21T23:23:52.430Z,363.60
2023-01-21T23:26:55.788Z,483.42
2023-01-21T23:30:01.009Z,392.98
2023-01-21T23:33:04.468Z,395.15
2023-01-21T23:36:09.513Z,368.92
2023-01-21T23:39:13.109Z,403.80
2023-01-21T23:42:17.174Z,345.45
2023-01-21T23:45:21.956Z,337.08
2023-01-21T23:48:25.311Z,345.02
2023-01-21T23:51:28.688Z,356.67
2023-01-21T23:54:32.026Z,413.52
2023-01-21T23:57:35.584Z,334.15
